BIHL weather

Hella Airport
Hella, Southern Region, Iceland

Public forecast

Using degrees Celsius for public forecast. Weather courtesy of forecast.io.

Closest aviation weather report (METAR) to Hella Airport

Report is more than 6 hours old.

Closest report is Vestmannaeyjar Airport, 24.8 nm (46.0 km) S. Retrieved 2019/10/16 18:00 UTC (7 hours ago):

BIVM 161800Z 07022G32KT 9999 FEW015 BKN030 08/05 Q0997

Closest aviation forecast (TAF) to Hella Airport

Closest forecast is Reykjavik Airport, 44.8 nm (83.0 km) WNW. Retrieved 2019-10-17 03:48 UTC (0 seconds ago):

TAF BIRK 170144Z 1703/1803 09005KT 9999 FEW040 TX09/1715Z TN02/1800Z